.
WxDataArchive / Data Records for 2014-11-05
2014-11-04 November 2014 2014-11-06

Data Records for Wednesday, 05 November 2014

Time	Temp	Chill	HIndex	Humid	Dewpt	 Wind 	HiWind	WindDir	Rain 	Barom
-----	----	-----	------	-----	-----	------	------	-------	-----	-----
00:00	43.2	43.2	43.2	85	39.0	0	1	248	0.00	30.093 
00:05	43.2	43.2	43.2	85	39.0	0	2	248	0.00	30.093 
00:10	43.1	43.1	43.1	85	38.9	0	3	248	0.00	30.093 
00:15	43.1	43.1	43.1	85	38.9	0	2	248	0.00	30.096 
00:20	42.9	42.9	42.9	85	38.7	0	3	248	0.00	30.096 
00:25	42.9	42.9	42.9	85	38.7	0	2	248	0.00	30.096 
00:30	42.9	42.9	42.9	86	39.0	0	2	248	0.00	30.095 
00:35	42.9	42.9	42.9	86	39.0	0	2	248	0.00	30.095 
00:40	42.8	42.8	42.8	85	38.6	0	1	248	0.00	30.095 
00:45	42.8	42.8	42.8	86	38.9	0	2	248	0.00	30.096 
00:50	42.6	42.6	42.6	86	38.7	0	2	248	0.00	30.096 
00:55	42.6	42.6	42.6	86	38.7	0	3	248	0.00	30.096 
01:00	42.5	42.5	42.5	86	38.6	0	1	248	0.00	30.101 
01:05	42.5	42.5	42.5	86	38.6	0	3	248	0.00	30.101 
01:10	42.3	42.3	42.3	86	38.4	0	2	248	0.00	30.101 
01:15	42.3	42.3	42.3	86	38.4	0	2	248	0.00	30.095 
01:20	42.3	42.3	42.3	87	38.7	0	2	248	0.00	30.095 
01:25	42.2	42.2	42.2	87	38.6	0	2	248	0.00	30.095 
01:30	42.2	42.2	42.2	87	38.6	0	1	248	0.00	30.096 
01:35	42.2	42.2	42.2	87	38.6	0	1	248	0.00	30.096 
01:40	42.1	42.1	42.1	87	38.5	0	3	248	0.00	30.096 
01:45	42.2	42.2	42.2	87	38.6	0	3	248	0.00	30.094 
01:50	42.2	42.2	42.2	87	38.6	0	2	248	0.00	30.094 
01:55	42.1	42.1	42.1	87	38.5	0	1	248	0.00	30.094 
02:00	42.1	42.1	42.1	87	38.5	0	2	248	0.00	30.096 
02:05	42.1	42.1	42.1	87	38.5	0	2	248	0.00	30.096 
02:10	42.1	42.1	42.1	87	38.5	0	2	248	0.00	30.096 
02:15	42.1	42.1	42.1	87	38.5	0	2	248	0.00	30.097 
02:20	42.1	42.1	42.1	87	38.5	0	2	248	0.00	30.097 
02:25	42.1	42.1	42.1	87	38.5	0	2	248	0.00	30.097 
02:30	42.1	42.1	42.1	87	38.5	1	4	248	0.00	30.100 
02:35	42.2	42.2	42.2	87	38.6	0	2	248	0.00	30.100 
02:40	42.2	42.2	42.2	87	38.6	0	3	248	0.00	30.100 
02:45	42.2	42.2	42.2	87	38.6	0	2	248	0.00	30.101 
02:50	42.1	42.1	42.1	87	38.5	0	1	248	0.00	30.101 
02:55	42.1	42.1	42.1	87	38.5	0	3	248	0.00	30.101 
03:00	42.1	42.1	42.1	87	38.5	0	2	248	0.00	30.099 
03:05	41.9	41.9	41.9	87	38.3	0	2	248	0.00	30.099 
03:10	41.9	41.9	41.9	87	38.3	0	2	248	0.00	30.099 
03:15	41.9	41.9	41.9	87	38.3	0	2	248	0.00	30.097 
03:20	41.9	41.9	41.9	87	38.3	0	1	248	0.00	30.097 
03:25	41.8	41.8	41.8	87	38.2	0	1	248	0.00	30.097 
03:30	41.8	41.8	41.8	87	38.2	0	1	248	0.00	30.098 
03:35	41.6	41.6	41.6	87	38.0	0	2	248	0.00	30.098 
03:40	41.6	41.6	41.6	87	38.0	0	2	248	0.00	30.098 
03:45	41.5	41.5	41.5	87	37.9	0	2	248	0.00	30.099 
03:50	41.5	41.5	41.5	87	37.9	0	1	248	0.00	30.099 
03:55	41.5	41.5	41.5	87	37.9	0	1	248	0.00	30.099 
04:00	41.5	41.5	41.5	87	37.9	0	1	248	0.00	30.095 
04:05	41.5	41.5	41.5	87	37.9	0	2	248	0.00	30.095 
04:10	41.5	41.5	41.5	87	37.9	0	2	248	0.00	30.095 
04:15	41.5	41.5	41.5	87	37.9	0	1	248	0.00	30.097 
04:20	41.3	41.3	41.3	87	37.7	0	2	248	0.00	30.097 
04:25	41.3	41.3	41.3	87	37.7	0	1	248	0.00	30.097 
04:30	41.3	41.3	41.3	87	37.7	0	1	248	0.00	30.112 
04:35	41.2	41.2	41.2	87	37.6	0	1	248	0.00	30.112 
04:40	41.2	41.2	41.2	89	38.2	0	2	248	0.00	30.112 
04:45	41.2	41.2	41.2	87	37.6	0	1	248	0.00	30.114 
04:50	41.1	41.1	41.1	87	37.5	0	2	248	0.00	30.114 
04:55	41.1	41.1	41.1	87	37.5	0	1	248	0.00	30.114 
05:00	40.9	40.9	40.9	87	37.3	0	1	248	0.00	30.115 
05:05	40.8	40.8	40.8	88	37.5	0	1	248	0.00	30.115 
05:10	40.9	40.9	40.9	88	37.6	0	3	248	0.00	30.115 
05:15	40.9	40.9	40.9	88	37.6	0	2	248	0.00	30.121 
05:20	40.9	40.9	40.9	88	37.6	0	2	248	0.00	30.121 
05:25	40.9	40.9	40.9	87	37.3	0	1	248	0.00	30.121 
05:30	40.9	40.9	40.9	87	37.3	0	1	248	0.00	30.121 
05:35	40.9	40.9	40.9	87	37.3	0	2	248	0.00	30.121 
05:40	40.9	40.9	40.9	87	37.3	0	1	248	0.00	30.121 
05:45	40.9	40.9	40.9	87	37.3	0	2	248	0.00	30.122 
05:50	40.9	40.9	40.9	87	37.3	0	1	248	0.00	30.122 
05:55	40.9	40.9	40.9	87	37.3	0	1	248	0.00	30.122 
06:00	40.9	40.9	40.9	87	37.3	0	1	248	0.00	30.124 
06:05	40.8	40.8	40.8	87	37.2	0	1	248	0.00	30.124 
06:10	40.8	40.8	40.8	87	37.2	0	1	248	0.00	30.124 
06:15	40.8	40.8	40.8	87	37.2	0	1	248	0.00	30.128 
06:20	40.8	40.8	40.8	87	37.2	0	1	248	0.00	30.128 
06:25	40.6	40.6	40.6	87	37.0	0	1	248	0.00	30.128 
06:30	40.6	40.6	40.6	87	37.0	0	1	248	0.00	30.135 
06:35	40.5	40.5	40.5	87	36.9	0	0	---	0.00	30.135 
06:40	40.3	40.3	40.3	87	36.7	0	0	---	0.00	30.135 
06:45	40.2	40.2	40.2	87	36.6	0	0	---	0.00	30.136 
06:50	40.1	40.1	40.1	87	36.5	0	1	248	0.00	30.136 
06:55	39.9	39.9	39.9	87	36.4	0	0	---	0.00	30.136 
07:00	39.9	39.9	39.9	88	36.6	0	1	248	0.00	30.140 
07:05	39.8	39.8	39.8	88	36.5	0	0	---	0.00	30.140 
07:10	39.8	39.8	39.8	88	36.5	0	1	248	0.00	30.140 
07:15	39.6	39.6	39.6	88	36.3	0	1	248	0.00	30.147 
07:20	39.6	39.6	39.6	88	36.3	0	1	248	0.00	30.147 
07:25	39.6	39.6	39.6	88	36.3	0	1	248	0.00	30.147 
07:30	39.5	39.5	39.5	88	36.2	0	1	248	0.00	30.156 
07:35	39.5	39.5	39.5	89	36.5	0	1	248	0.00	30.156 
07:40	39.5	39.5	39.5	89	36.5	0	2	248	0.00	30.156 
07:45	39.5	39.5	39.5	89	36.5	0	1	248	0.00	30.159 
07:50	39.5	39.5	39.5	89	36.5	0	1	248	0.00	30.159 
07:55	39.5	39.5	39.5	89	36.5	0	1	248	0.00	30.159 
08:00	39.5	39.5	39.5	89	36.5	0	1	248	0.00	30.163 
08:05	39.5	39.5	39.5	89	36.5	0	0	---	0.00	30.163 
08:10	39.3	39.3	39.3	89	36.3	0	1	248	0.00	30.163 
08:15	39.3	39.3	39.3	89	36.3	0	1	248	0.00	30.169 
08:20	39.5	39.5	39.5	89	36.5	0	0	---	0.00	30.169 
08:25	39.5	39.5	39.5	89	36.5	0	1	248	0.00	30.169 
08:30	39.6	39.6	39.6	90	36.9	0	0	---	0.00	30.172 
08:35	39.8	39.8	39.8	90	37.1	0	1	248	0.00	30.172 
08:40	40.2	40.2	40.2	90	37.5	0	1	248	0.00	30.172 
08:45	40.5	40.5	40.5	90	37.8	0	1	248	0.00	30.171 
08:50	40.9	40.9	40.9	90	38.2	0	2	248	0.00	30.171 
08:55	41.3	41.3	41.3	89	38.3	0	2	248	0.00	30.171 
09:00	41.8	41.8	41.8	88	38.5	0	2	248	0.00	30.173 
09:05	42.2	42.2	42.2	88	38.9	0	2	248	0.00	30.173 
09:10	42.6	42.6	42.6	86	38.7	1	4	248	0.00	30.173 
09:15	43.1	43.1	43.1	86	39.2	0	3	248	0.00	30.175 
09:20	43.5	43.5	43.5	85	39.3	1	2	248	0.00	30.175 
09:25	43.8	43.8	43.8	83	39.0	1	4	248	0.00	30.175 
09:30	43.9	43.9	43.9	82	38.8	1	3	248	0.00	30.173 
09:35	44.2	44.2	44.2	81	38.7	1	3	248	0.00	30.173 
09:40	44.5	44.5	44.5	81	39.0	0	3	248	0.00	30.173 
09:45	44.8	44.8	44.8	80	39.0	1	3	248	0.00	30.174 
09:50	45.1	45.1	45.1	80	39.3	1	2	248	0.00	30.174 
09:55	45.4	45.4	45.4	79	39.3	1	3	248	0.00	30.174 
10:00	45.7	45.7	45.7	78	39.2	0	2	248	0.00	30.173 
10:05	45.8	45.8	45.8	77	39.0	1	2	248	0.00	30.173 
10:10	46.1	46.1	46.1	77	39.3	0	2	248	0.00	30.173 
10:15	46.4	46.4	46.4	76	39.3	1	4	248	0.00	30.174 
10:20	46.7	46.7	46.7	75	39.2	0	2	248	0.00	30.174 
10:25	46.8	46.8	46.8	75	39.3	1	2	248	0.00	30.174 
10:30	47.3	47.3	47.3	76	40.1	0	2	248	0.00	30.173 
10:35	47.6	47.6	47.6	75	40.1	0	1	248	0.00	30.173 
10:40	47.9	47.9	47.9	74	40.0	0	2	248	0.00	30.173 
10:45	48.0	48.0	48.0	73	39.8	0	1	248	0.00	30.170 
10:50	48.3	48.3	48.3	72	39.7	0	3	248	0.00	30.170 
10:55	48.3	48.3	48.3	70	39.0	0	3	248	0.00	30.170 
11:00	48.8	48.8	48.8	72	40.2	0	2	248	0.00	30.168 
11:05	49.2	49.2	49.2	70	39.8	0	2	248	0.00	30.168 
11:10	49.6	49.6	49.6	69	39.9	0	1	248	0.00	30.168 
11:15	50.1	50.1	50.1	67	39.6	0	2	248	0.00	30.169 
11:20	50.4	50.4	50.4	65	39.1	0	2	248	0.00	30.169 
11:25	50.7	50.7	50.7	64	39.0	0	2	248	0.00	30.169 
11:30	50.8	50.8	50.8	64	39.1	0	2	248	0.00	30.161 
11:35	51.3	51.3	51.3	65	39.9	0	1	248	0.00	30.161 
11:40	51.7	51.7	51.7	64	39.9	0	1	248	0.00	30.161 
11:45	51.9	51.9	51.9	63	39.7	0	1	248	0.00	30.159 
11:50	52.0	52.0	52.0	63	39.8	0	2	248	0.00	30.159 
11:55	52.3	52.3	52.3	62	39.7	0	1	248	0.00	30.159 
12:00	52.6	52.6	52.6	62	40.0	0	2	248	0.00	30.152 
12:05	52.8	52.8	52.8	61	39.7	0	2	248	0.00	30.152 
12:10	53.1	53.1	53.1	59	39.2	0	2	248	0.00	30.152 
12:15	53.3	53.3	53.3	59	39.3	0	1	248	0.00	30.141 
12:20	53.6	53.6	53.6	58	39.2	0	1	248	0.00	30.141 
12:25	53.9	53.9	53.9	57	39.0	0	2	248	0.00	30.141 
12:30	54.4	54.4	54.4	57	39.5	0	1	248	0.00	30.134 
12:35	54.7	54.7	54.7	56	39.3	0	1	248	0.00	30.134 
12:40	55.0	55.0	55.0	55	39.1	0	2	248	0.00	30.134 
12:45	55.1	55.1	55.1	54	38.8	0	2	248	0.00	30.128 
12:50	55.1	55.1	55.1	54	38.8	0	2	248	0.00	30.128 
12:55	55.4	55.4	55.4	54	39.0	0	2	248	0.00	30.128 
13:00	55.7	55.7	55.7	53	38.8	0	2	248	0.00	30.120 
13:05	55.9	55.9	55.9	53	39.0	0	3	248	0.00	30.120 
13:10	56.2	56.2	56.2	53	39.3	0	1	248	0.00	30.120 
13:15	56.5	56.5	56.5	54	40.1	0	1	248	0.00	30.116 
13:20	56.5	56.5	56.5	54	40.1	1	5	90	0.00	30.116 
13:25	56.5	56.5	56.5	54	40.1	0	2	90	0.00	30.116 
13:30	56.6	56.6	56.6	53	39.7	0	2	112	0.00	30.110 
13:35	56.7	56.7	56.7	53	39.8	1	3	112	0.00	30.110 
13:40	57.0	57.0	57.0	52	39.5	0	2	248	0.00	30.110 
13:45	57.2	57.2	57.2	53	40.2	0	2	248	0.00	30.104 
13:50	57.2	57.2	57.2	52	39.7	0	2	248	0.00	30.104 
13:55	57.3	57.3	57.3	50	38.8	0	2	248	0.00	30.104 
14:00	57.6	57.6	57.6	51	39.6	0	2	248	0.00	30.099 
14:05	57.8	57.8	57.8	52	40.3	0	1	248	0.00	30.099 
14:10	58.0	58.0	58.0	50	39.5	0	3	248	0.00	30.099 
14:15	58.0	58.0	58.0	51	40.0	0	2	248	0.00	30.096 
14:20	58.1	58.1	58.1	48	38.5	1	3	248	0.00	30.096 
14:25	58.3	58.3	58.3	49	39.2	0	1	248	0.00	30.096 
14:30	58.3	58.3	58.3	47	38.2	1	5	248	0.00	30.091 
14:35	58.3	58.3	58.3	47	38.2	1	2	248	0.00	30.091 
14:40	58.3	58.3	58.3	48	38.7	0	2	248	0.00	30.091 
14:45	58.6	58.6	58.6	47	38.4	1	2	248	0.00	30.088 
14:50	58.7	58.7	58.7	47	38.5	1	2	248	0.00	30.088 
14:55	58.9	58.9	58.9	48	39.2	1	4	248	0.00	30.088 
15:00	59.0	59.0	59.0	47	38.8	1	3	248	0.00	30.088 
15:05	59.0	59.0	59.0	48	39.3	0	3	248	0.00	30.088 
15:10	59.2	59.2	59.2	48	39.5	0	1	248	0.00	30.088 
15:15	59.2	59.2	59.2	47	39.0	1	3	248	0.00	30.086 
15:20	59.0	59.0	59.0	48	39.3	0	3	248	0.00	30.086 
15:25	58.9	58.9	58.9	48	39.2	1	4	248	0.00	30.086 
15:30	58.9	58.9	58.9	48	39.2	1	3	248	0.00	30.081 
15:35	58.9	58.9	58.9	48	39.2	0	2	248	0.00	30.081 
15:40	58.9	58.9	58.9	48	39.2	0	2	248	0.00	30.081 
15:45	58.9	58.9	58.9	47	38.7	0	3	248	0.00	30.073 
15:50	58.9	58.9	58.9	48	39.2	0	2	248	0.00	30.073 
15:55	58.9	58.9	58.9	48	39.2	0	3	248	0.00	30.073 
16:00	58.9	58.9	58.9	47	38.7	0	3	248	0.00	30.074 
16:05	58.9	58.9	58.9	47	38.7	1	3	248	0.00	30.074 
16:10	58.9	58.9	58.9	46	38.2	1	3	248	0.00	30.074 
16:15	58.9	58.9	58.9	46	38.2	0	4	248	0.00	30.071 
16:20	58.9	58.9	58.9	47	38.7	1	4	248	0.00	30.071 
16:25	58.9	58.9	58.9	47	38.7	0	1	248	0.00	30.071 
16:30	58.7	58.7	58.7	47	38.5	0	2	248	0.00	30.068 
16:35	58.6	58.6	58.6	47	38.4	0	2	248	0.00	30.068 
16:40	58.4	58.4	58.4	47	38.2	0	4	248	0.00	30.068 
16:45	58.3	58.3	58.3	48	38.7	0	2	248	0.00	30.066 
16:50	58.1	58.1	58.1	49	39.0	0	2	248	0.00	30.066 
16:55	57.8	57.8	57.8	49	38.8	0	2	248	0.00	30.066 
17:00	57.6	57.6	57.6	49	38.6	0	1	248	0.00	30.067 
17:05	57.3	57.3	57.3	50	38.8	0	1	248	0.00	30.067 
17:10	57.0	57.0	57.0	51	39.1	0	2	248	0.00	30.067 
17:15	56.9	56.9	56.9	51	39.0	0	1	248	0.00	30.067 
17:20	56.6	56.6	56.6	52	39.2	0	1	248	0.00	30.067 
17:25	56.2	56.2	56.2	53	39.3	0	1	248	0.00	30.067 
17:30	55.7	55.7	55.7	53	38.8	0	0	---	0.00	30.062 
17:35	55.3	55.3	55.3	54	38.9	0	0	---	0.00	30.062 
17:40	54.8	54.8	54.8	55	38.9	0	0	---	0.00	30.062 
17:45	54.4	54.4	54.4	56	39.0	0	0	---	0.00	30.064 
17:50	53.8	53.8	53.8	57	38.9	0	0	---	0.00	30.064 
17:55	53.3	53.3	53.3	58	38.9	0	0	---	0.00	30.064 
18:00	52.8	52.8	52.8	60	39.3	0	0	---	0.00	30.072 
18:05	52.3	52.3	52.3	61	39.3	0	0	---	0.00	30.072 
18:10	51.9	51.9	51.9	62	39.3	0	0	---	0.00	30.072 
18:15	51.6	51.6	51.6	63	39.4	0	0	---	0.00	30.075 
18:20	51.1	51.1	51.1	63	38.9	0	0	---	0.00	30.075 
18:25	50.7	50.7	50.7	64	39.0	0	0	---	0.00	30.075 
18:30	50.4	50.4	50.4	65	39.1	0	0	---	0.00	30.077 
18:35	50.1	50.1	50.1	65	38.8	0	0	---	0.00	30.077 
18:40	49.8	49.8	49.8	66	38.9	0	0	---	0.00	30.077 
18:45	49.6	49.6	49.6	67	39.1	0	0	---	0.00	30.074 
18:50	49.5	49.5	49.5	67	39.0	0	0	---	0.00	30.074 
18:55	49.4	49.4	49.4	67	38.9	0	0	---	0.00	30.074 
19:00	49.1	49.1	49.1	68	39.0	0	0	---	0.00	30.079 
19:05	48.9	48.9	48.9	69	39.2	0	0	---	0.00	30.079 
19:10	48.8	48.8	48.8	69	39.1	0	0	---	0.00	30.079 
19:15	48.6	48.6	48.6	69	38.9	0	0	---	0.00	30.069 
19:20	48.6	48.6	48.6	69	38.9	0	0	---	0.00	30.069 
19:25	48.6	48.6	48.6	69	38.9	0	0	---	0.00	30.069 
19:30	48.5	48.5	48.5	69	38.8	0	0	---	0.00	30.066 
19:35	48.5	48.5	48.5	69	38.8	0	0	---	0.00	30.066 
19:40	48.5	48.5	48.5	69	38.8	0	1	248	0.00	30.066 
19:45	48.5	48.5	48.5	69	38.8	0	0	---	0.00	30.064 
19:50	48.6	48.6	48.6	69	38.9	0	1	248	0.00	30.064 
19:55	48.8	48.8	48.8	68	38.7	0	1	248	0.00	30.064 
20:00	48.9	48.9	48.9	68	38.8	0	1	248	0.00	30.062 
20:05	48.8	48.8	48.8	67	38.3	0	0	---	0.00	30.062 
20:10	48.8	48.8	48.8	67	38.3	0	0	---	0.00	30.062 
20:15	48.6	48.6	48.6	67	38.1	0	0	---	0.00	30.058 
20:20	48.3	48.3	48.3	68	38.2	0	0	---	0.00	30.058 
20:25	48.2	48.2	48.2	68	38.1	0	1	248	0.00	30.058 
20:30	48.2	48.2	48.2	67	37.8	0	1	248	0.00	30.049 
20:35	48.2	48.2	48.2	67	37.8	0	1	248	0.00	30.049 
20:40	48.2	48.2	48.2	66	37.4	0	1	248	0.00	30.049 
20:45	48.3	48.3	48.3	65	37.1	0	1	248	0.00	30.047 
20:50	48.3	48.3	48.3	65	37.1	0	1	248	0.00	30.047 
20:55	48.2	48.2	48.2	65	37.0	0	0	---	0.00	30.047 
21:00	48.0	48.0	48.0	65	36.8	0	1	248	0.00	30.041 
21:05	47.7	47.7	47.7	65	36.5	0	1	248	0.00	30.041 
21:10	47.6	47.6	47.6	66	36.8	0	0	---	0.00	30.041 
21:15	47.4	47.4	47.4	66	36.6	0	1	248	0.00	30.035 
21:20	47.3	47.3	47.3	65	36.1	0	1	248	0.00	30.035 
21:25	47.3	47.3	47.3	65	36.1	0	0	---	0.00	30.035 
21:30	47.1	47.1	47.1	65	35.9	0	1	248	0.00	30.028 
21:35	47.0	47.0	47.0	66	36.2	0	0	---	0.00	30.028 
21:40	46.7	46.7	46.7	66	36.0	0	1	248	0.00	30.028 
21:45	46.7	46.7	46.7	66	36.0	0	1	248	0.00	30.015 
21:50	46.5	46.5	46.5	66	35.8	0	1	248	0.00	30.015 
21:55	46.5	46.5	46.5	66	35.8	0	1	248	0.00	30.015 
22:00	46.4	46.4	46.4	67	36.0	0	0	---	0.00	30.010 
22:05	46.2	46.2	46.2	67	35.9	0	0	---	0.00	30.010 
22:10	46.2	46.2	46.2	67	35.9	0	0	---	0.00	30.010 
22:15	46.1	46.1	46.1	67	35.8	0	1	248	0.00	29.998 
22:20	46.0	46.0	46.0	68	36.0	0	1	248	0.00	29.998 
22:25	46.0	46.0	46.0	68	36.0	0	0	---	0.00	29.998 
22:30	46.0	46.0	46.0	69	36.4	0	0	---	0.00	29.996 
22:35	46.0	46.0	46.0	69	36.4	0	1	248	0.00	29.996 
22:40	46.0	46.0	46.0	69	36.4	0	1	248	0.00	29.996 
22:45	45.8	45.8	45.8	69	36.2	0	0	---	0.00	29.995 
22:50	45.8	45.8	45.8	70	36.6	0	0	---	0.00	29.995 
22:55	45.7	45.7	45.7	70	36.5	0	1	248	0.00	29.995 
23:00	45.7	45.7	45.7	71	36.8	0	1	248	0.00	29.995 
23:05	45.7	45.7	45.7	71	36.8	0	0	---	0.00	29.995 
23:10	45.5	45.5	45.5	72	37.0	0	1	248	0.00	29.995 
23:15	45.5	45.5	45.5	72	37.0	0	1	248	0.00	29.982 
23:20	45.4	45.4	45.4	73	37.3	0	0	---	0.00	29.982 
23:25	45.2	45.2	45.2	73	37.1	0	0	---	0.00	29.982 
23:30	44.9	44.9	44.9	74	37.1	0	0	---	0.00	29.977 
23:35	44.8	44.8	44.8	75	37.4	0	0	---	0.00	29.977 
23:40	44.6	44.6	44.6	75	37.2	0	0	---	0.00	29.977 
23:45	44.6	44.6	44.6	76	37.5	0	0	---	0.00	29.970 
23:50	44.6	44.6	44.6	77	37.8	0	0	---	0.00	29.970 
23:55	44.6	44.6	44.6	77	37.8	0	1	248	0.00	29.970 

CoCoRaHS
IN-AL-39
A2 Web Hosting
Creative Commons License
GoDaddy
search engine by freefind advanced

loaded 2018-11-16 23:24:11 • last modified 2010-11-18 10:43:29
Privacy PolicyDisclaimer
• wx.awcolley.com is powered by PmWiki v.2002016 •
• all content (unless otherwise noted) © 2018 A W Colley